sensor_id;sensor_type;location;lat;lon;timestamp;P1;durP1;ratioP1;P2;durP2;ratioP2
41115;SDS011;26861;51.824;4.682;2023-07-08T00:00:42;1.48;;;1.23;;
41115;SDS011;26861;51.824;4.682;2023-07-08T00:03:09;1.13;;;1.10;;
41115;SDS011;26861;51.824;4.682;2023-07-08T00:05:35;1.42;;;1.20;;
41115;SDS011;26861;51.824;4.682;2023-07-08T00:08:01;1.80;;;1.42;;
41115;SDS011;26861;51.824;4.682;2023-07-08T00:10:28;1.55;;;1.10;;
41115;SDS011;26861;51.824;4.682;2023-07-08T00:12:55;1.25;;;1.15;;
41115;SDS011;26861;51.824;4.682;2023-07-08T00:15:29;1.20;;;1.00;;
41115;SDS011;26861;51.824;4.682;2023-07-08T00:18:00;2.45;;;1.13;;
41115;SDS011;26861;51.824;4.682;2023-07-08T00:23:04;1.20;;;1.10;;
41115;SDS011;26861;51.824;4.682;2023-07-08T00:25:30;1.42;;;1.33;;
41115;SDS011;26861;51.824;4.682;2023-07-08T00:27:57;1.30;;;1.20;;
41115;SDS011;26861;51.824;4.682;2023-07-08T00:30:24;1.40;;;1.30;;
41115;SDS011;26861;51.824;4.682;2023-07-08T00:32:52;1.70;;;1.40;;
41115;SDS011;26861;51.824;4.682;2023-07-08T00:35:34;2.45;;;1.25;;
41115;SDS011;26861;51.824;4.682;2023-07-08T00:40:48;1.08;;;1.00;;
41115;SDS011;26861;51.824;4.682;2023-07-08T00:43:24;1.35;;;1.23;;
41115;SDS011;26861;51.824;4.682;2023-07-08T00:46:08;1.33;;;1.23;;
41115;SDS011;26861;51.824;4.682;2023-07-08T00:48:43;1.48;;;1.08;;
41115;SDS011;26861;51.824;4.682;2023-07-08T00:51:10;1.15;;;1.00;;
41115;SDS011;26861;51.824;4.682;2023-07-08T00:53:37;1.58;;;1.25;;
41115;SDS011;26861;51.824;4.682;2023-07-08T00:59:15;1.13;;;1.00;;
41115;SDS011;26861;51.824;4.682;2023-07-08T01:01:46;2.20;;;1.00;;
41115;SDS011;26861;51.824;4.682;2023-07-08T01:04:14;1.13;;;0.90;;
41115;SDS011;26861;51.824;4.682;2023-07-08T01:06:56;1.52;;;1.05;;
41115;SDS011;26861;51.824;4.682;2023-07-08T01:09:25;1.45;;;1.20;;
41115;SDS011;26861;51.824;4.682;2023-07-08T01:11:56;1.10;;;1.10;;
41115;SDS011;26861;51.824;4.682;2023-07-08T01:14:26;1.10;;;1.00;;
41115;SDS011;26861;51.824;4.682;2023-07-08T01:16:57;1.30;;;1.20;;
41115;SDS011;26861;51.824;4.682;2023-07-08T01:19:23;1.27;;;1.08;;
41115;SDS011;26861;51.824;4.682;2023-07-08T01:21:58;0.82;;;0.82;;
41115;SDS011;26861;51.824;4.682;2023-07-08T01:24:31;1.10;;;1.00;;
41115;SDS011;26861;51.824;4.682;2023-07-08T01:27:01;1.13;;;1.02;;
41115;SDS011;26861;51.824;4.682;2023-07-08T01:29:29;1.25;;;1.15;;
41115;SDS011;26861;51.824;4.682;2023-07-08T01:31:56;1.10;;;1.00;;
41115;SDS011;26861;51.824;4.682;2023-07-08T01:34:23;1.13;;;0.95;;
41115;SDS011;26861;51.824;4.682;2023-07-08T01:36:50;1.25;;;1.15;;
41115;SDS011;26861;51.824;4.682;2023-07-08T01:39:18;2.17;;;1.00;;
41115;SDS011;26861;51.824;4.682;2023-07-08T01:41:46;1.27;;;0.93;;
41115;SDS011;26861;51.824;4.682;2023-07-08T01:47:05;1.33;;;1.02;;
41115;SDS011;26861;51.824;4.682;2023-07-08T01:49:36;1.05;;;0.98;;
41115;SDS011;26861;51.824;4.682;2023-07-08T01:52:04;1.20;;;1.10;;
41115;SDS011;26861;51.824;4.682;2023-07-08T01:54:30;1.60;;;1.00;;
41115;SDS011;26861;51.824;4.682;2023-07-08T01:56:56;1.35;;;0.80;;
41115;SDS011;26861;51.824;4.682;2023-07-08T01:59:23;1.10;;;1.00;;
41115;SDS011;26861;51.824;4.682;2023-07-08T02:01:50;1.25;;;1.15;;
41115;SDS011;26861;51.824;4.682;2023-07-08T02:04:23;0.90;;;0.90;;
41115;SDS011;26861;51.824;4.682;2023-07-08T02:06:53;1.08;;;0.98;;
41115;SDS011;26861;51.824;4.682;2023-07-08T02:09:21;1.33;;;1.20;;
41115;SDS011;26861;51.824;4.682;2023-07-08T02:11:47;1.30;;;1.17;;
41115;SDS011;26861;51.824;4.682;2023-07-08T02:14:13;1.23;;;1.13;;
41115;SDS011;26861;51.824;4.682;2023-07-08T02:16:39;1.38;;;1.10;;
41115;SDS011;26861;51.824;4.682;2023-07-08T02:19:05;1.10;;;0.90;;
41115;SDS011;26861;51.824;4.682;2023-07-08T02:21:31;1.10;;;1.00;;
41115;SDS011;26861;51.824;4.682;2023-07-08T02:24:00;1.20;;;1.10;;
41115;SDS011;26861;51.824;4.682;2023-07-08T02:26:26;2.20;;;1.10;;
41115;SDS011;26861;51.824;4.682;2023-07-08T02:28:52;1.10;;;1.00;;
41115;SDS011;26861;51.824;4.682;2023-07-08T02:31:18;1.45;;;1.20;;
41115;SDS011;26861;51.824;4.682;2023-07-08T02:33:44;1.10;;;1.00;;
41115;SDS011;26861;51.824;4.682;2023-07-08T02:36:10;1.45;;;1.35;;
41115;SDS011;26861;51.824;4.682;2023-07-08T02:38:36;1.40;;;1.30;;
41115;SDS011;26861;51.824;4.682;2023-07-08T02:41:03;1.00;;;1.00;;
41115;SDS011;26861;51.824;4.682;2023-07-08T02:43:29;1.15;;;0.85;;
41115;SDS011;26861;51.824;4.682;2023-07-08T02:45:55;2.35;;;1.10;;
41115;SDS011;26861;51.824;4.682;2023-07-08T02:48:21;1.50;;;1.40;;
41115;SDS011;26861;51.824;4.682;2023-07-08T02:50:47;1.20;;;1.00;;
41115;SDS011;26861;51.824;4.682;2023-07-08T02:53:13;1.08;;;0.98;;
41115;SDS011;26861;51.824;4.682;2023-07-08T02:55:39;1.33;;;1.23;;
41115;SDS011;26861;51.824;4.682;2023-07-08T02:58:07;1.27;;;1.17;;
41115;SDS011;26861;51.824;4.682;2023-07-08T03:00:34;0.93;;;0.93;;
41115;SDS011;26861;51.824;4.682;2023-07-08T03:03:03;2.40;;;1.05;;
41115;SDS011;26861;51.824;4.682;2023-07-08T03:05:29;1.10;;;0.95;;
41115;SDS011;26861;51.824;4.682;2023-07-08T03:07:56;1.05;;;0.95;;
41115;SDS011;26861;51.824;4.682;2023-07-08T03:10:22;1.50;;;1.05;;
41115;SDS011;26861;51.824;4.682;2023-07-08T03:12:48;1.10;;;1.00;;
41115;SDS011;26861;51.824;4.682;2023-07-08T03:15:14;1.45;;;1.35;;
41115;SDS011;26861;51.824;4.682;2023-07-08T03:17:40;1.23;;;1.13;;
41115;SDS011;26861;51.824;4.682;2023-07-08T03:20:08;1.05;;;0.95;;
41115;SDS011;26861;51.824;4.682;2023-07-08T03:22:35;1.15;;;1.02;;
41115;SDS011;26861;51.824;4.682;2023-07-08T03:25:02;1.17;;;1.08;;
41115;SDS011;26861;51.824;4.682;2023-07-08T03:27:28;1.30;;;1.10;;
41115;SDS011;26861;51.824;4.682;2023-07-08T03:29:54;1.77;;;1.10;;
41115;SDS011;26861;51.824;4.682;2023-07-08T03:32:21;1.40;;;1.30;;
41115;SDS011;26861;51.824;4.682;2023-07-08T03:34:47;1.63;;;1.30;;
41115;SDS011;26861;51.824;4.682;2023-07-08T03:37:13;1.20;;;1.02;;
41115;SDS011;26861;51.824;4.682;2023-07-08T03:39:39;1.52;;;1.20;;
41115;SDS011;26861;51.824;4.682;2023-07-08T03:42:05;1.70;;;1.13;;
41115;SDS011;26861;51.824;4.682;2023-07-08T03:44:31;1.05;;;0.95;;
41115;SDS011;26861;51.824;4.682;2023-07-08T03:46:58;1.00;;;0.95;;
41115;SDS011;26861;51.824;4.682;2023-07-08T03:49:24;1.25;;;1.10;;
41115;SDS011;26861;51.824;4.682;2023-07-08T03:51:51;1.23;;;1.13;;
41115;SDS011;26861;51.824;4.682;2023-07-08T03:54:38;1.42;;;1.15;;
41115;SDS011;26861;51.824;4.682;2023-07-08T03:57:03;2.00;;;1.20;;
41115;SDS011;26861;51.824;4.682;2023-07-08T03:59:30;1.20;;;1.10;;
41115;SDS011;26861;51.824;4.682;2023-07-08T04:01:56;0.73;;;0.70;;
41115;SDS011;26861;51.824;4.682;2023-07-08T04:04:22;2.25;;;1.08;;
41115;SDS011;26861;51.824;4.682;2023-07-08T04:06:48;1.98;;;1.17;;
41115;SDS011;26861;51.824;4.682;2023-07-08T04:09:16;1.30;;;1.20;;
41115;SDS011;26861;51.824;4.682;2023-07-08T04:11:42;1.35;;;1.23;;
41115;SDS011;26861;51.824;4.682;2023-07-08T04:14:08;0.95;;;0.93;;
41115;SDS011;26861;51.824;4.682;2023-07-08T04:19:30;1.23;;;1.13;;
41115;SDS011;26861;51.824;4.682;2023-07-08T04:21:56;1.52;;;1.15;;
41115;SDS011;26861;51.824;4.682;2023-07-08T04:24:22;1.17;;;1.08;;
41115;SDS011;26861;51.824;4.682;2023-07-08T04:26:49;1.13;;;1.02;;
41115;SDS011;26861;51.824;4.682;2023-07-08T04:29:17;1.23;;;0.93;;
41115;SDS011;26861;51.824;4.682;2023-07-08T04:31:45;1.38;;;0.98;;
41115;SDS011;26861;51.824;4.682;2023-07-08T04:34:13;1.35;;;1.02;;
41115;SDS011;26861;51.824;4.682;2023-07-08T04:36:40;1.33;;;1.23;;
41115;SDS011;26861;51.824;4.682;2023-07-08T04:39:07;1.13;;;1.02;;
41115;SDS011;26861;51.824;4.682;2023-07-08T04:41:37;1.00;;;0.90;;
41115;SDS011;26861;51.824;4.682;2023-07-08T04:44:09;1.25;;;1.15;;
41115;SDS011;26861;51.824;4.682;2023-07-08T04:49:05;2.17;;;0.90;;
41115;SDS011;26861;51.824;4.682;2023-07-08T04:51:35;1.05;;;0.95;;
41115;SDS011;26861;51.824;4.682;2023-07-08T04:54:02;1.27;;;1.17;;
41115;SDS011;26861;51.824;4.682;2023-07-08T04:56:36;1.92;;;1.20;;
41115;SDS011;26861;51.824;4.682;2023-07-08T04:59:02;1.20;;;1.10;;
41115;SDS011;26861;51.824;4.682;2023-07-08T05:01:28;1.25;;;1.15;;
41115;SDS011;26861;51.824;4.682;2023-07-08T05:03:55;1.70;;;1.60;;
41115;SDS011;26861;51.824;4.682;2023-07-08T05:06:21;1.67;;;1.58;;
41115;SDS011;26861;51.824;4.682;2023-07-08T05:08:47;2.15;;;2.00;;
41115;SDS011;26861;51.824;4.682;2023-07-08T05:11:13;2.65;;;2.47;;
41115;SDS011;26861;51.824;4.682;2023-07-08T05:13:38;2.97;;;2.78;;
41115;SDS011;26861;51.824;4.682;2023-07-08T05:16:04;3.08;;;2.88;;
41115;SDS011;26861;51.824;4.682;2023-07-08T05:18:30;4.35;;;4.05;;
41115;SDS011;26861;51.824;4.682;2023-07-08T05:20:56;5.40;;;5.00;;
41115;SDS011;26861;51.824;4.682;2023-07-08T05:23:23;4.88;;;4.57;;
41115;SDS011;26861;51.824;4.682;2023-07-08T05:25:49;7.25;;;6.65;;
41115;SDS011;26861;51.824;4.682;2023-07-08T05:28:15;8.43;;;7.82;;
41115;SDS011;26861;51.824;4.682;2023-07-08T05:30:42;9.07;;;8.38;;
41115;SDS011;26861;51.824;4.682;2023-07-08T05:33:08;10.07;;;9.30;;
41115;SDS011;26861;51.824;4.682;2023-07-08T05:35:34;11.05;;;10.15;;
41115;SDS011;26861;51.824;4.682;2023-07-08T05:38:01;13.15;;;12.05;;
41115;SDS011;26861;51.824;4.682;2023-07-08T05:40:27;15.45;;;14.18;;
41115;SDS011;26861;51.824;4.682;2023-07-08T05:42:53;16.65;;;15.25;;
41115;SDS011;26861;51.824;4.682;2023-07-08T05:45:19;16.95;;;15.55;;
41115;SDS011;26861;51.824;4.682;2023-07-08T05:47:45;17.75;;;16.25;;
41115;SDS011;26861;51.824;4.682;2023-07-08T05:50:11;17.95;;;16.27;;
41115;SDS011;26861;51.824;4.682;2023-07-08T05:52:37;16.73;;;15.20;;
41115;SDS011;26861;51.824;4.682;2023-07-08T05:55:03;18.33;;;16.65;;
41115;SDS011;26861;51.824;4.682;2023-07-08T05:57:30;17.45;;;15.93;;
41115;SDS011;26861;51.824;4.682;2023-07-08T05:59:56;16.80;;;15.23;;
41115;SDS011;26861;51.824;4.682;2023-07-08T06:02:22;16.25;;;14.65;;
41115;SDS011;26861;51.824;4.682;2023-07-08T06:04:51;15.50;;;14.10;;
41115;SDS011;26861;51.824;4.682;2023-07-08T06:07:17;15.65;;;14.13;;
41115;SDS011;26861;51.824;4.682;2023-07-08T06:09:43;14.10;;;12.80;;
41115;SDS011;26861;51.824;4.682;2023-07-08T06:12:10;14.07;;;12.68;;
41115;SDS011;26861;51.824;4.682;2023-07-08T06:14:36;12.80;;;11.60;;
41115;SDS011;26861;51.824;4.682;2023-07-08T06:17:04;12.65;;;11.45;;
41115;SDS011;26861;51.824;4.682;2023-07-08T06:19:30;12.15;;;10.98;;
41115;SDS011;26861;51.824;4.682;2023-07-08T06:21:56;11.73;;;10.63;;
41115;SDS011;26861;51.824;4.682;2023-07-08T06:24:23;11.32;;;10.32;;
41115;SDS011;26861;51.824;4.682;2023-07-08T06:26:49;11.52;;;10.38;;
41115;SDS011;26861;51.824;4.682;2023-07-08T06:29:15;11.15;;;10.05;;
41115;SDS011;26861;51.824;4.682;2023-07-08T06:31:41;10.90;;;9.52;;
41115;SDS011;26861;51.824;4.682;2023-07-08T06:34:08;10.52;;;9.45;;
41115;SDS011;26861;51.824;4.682;2023-07-08T06:36:34;9.95;;;8.90;;
41115;SDS011;26861;51.824;4.682;2023-07-08T06:39:00;9.25;;;8.35;;
41115;SDS011;26861;51.824;4.682;2023-07-08T06:41:25;9.30;;;8.32;;
41115;SDS011;26861;51.824;4.682;2023-07-08T06:43:51;8.60;;;7.60;;
41115;SDS011;26861;51.824;4.682;2023-07-08T06:46:17;7.60;;;6.90;;
41115;SDS011;26861;51.824;4.682;2023-07-08T06:48:44;7.15;;;6.50;;
41115;SDS011;26861;51.824;4.682;2023-07-08T06:51:10;8.65;;;7.13;;
41115;SDS011;26861;51.824;4.682;2023-07-08T06:53:36;6.95;;;6.25;;
41115;SDS011;26861;51.824;4.682;2023-07-08T06:56:02;5.82;;;5.28;;
41115;SDS011;26861;51.824;4.682;2023-07-08T06:58:28;6.13;;;5.53;;
41115;SDS011;26861;51.824;4.682;2023-07-08T07:00:54;6.20;;;4.88;;
41115;SDS011;26861;51.824;4.682;2023-07-08T07:03:20;5.13;;;4.35;;
41115;SDS011;26861;51.824;4.682;2023-07-08T07:05:46;4.72;;;4.30;;
41115;SDS011;26861;51.824;4.682;2023-07-08T07:08:12;4.28;;;3.85;;
41115;SDS011;26861;51.824;4.682;2023-07-08T07:10:38;4.45;;;3.88;;
41115;SDS011;26861;51.824;4.682;2023-07-08T07:13:04;3.35;;;3.05;;
41115;SDS011;26861;51.824;4.682;2023-07-08T07:15:30;2.83;;;2.63;;
41115;SDS011;26861;51.824;4.682;2023-07-08T07:17:57;2.53;;;2.33;;
41115;SDS011;26861;51.824;4.682;2023-07-08T07:20:24;2.42;;;2.22;;
41115;SDS011;26861;51.824;4.682;2023-07-08T07:22:50;2.35;;;2.13;;
41115;SDS011;26861;51.824;4.682;2023-07-08T07:25:17;2.47;;;2.28;;
41115;SDS011;26861;51.824;4.682;2023-07-08T07:27:44;2.63;;;2.40;;
41115;SDS011;26861;51.824;4.682;2023-07-08T07:30:11;2.15;;;1.95;;
41115;SDS011;26861;51.824;4.682;2023-07-08T07:32:43;2.28;;;2.08;;
41115;SDS011;26861;51.824;4.682;2023-07-08T07:35:10;2.53;;;1.70;;
41115;SDS011;26861;51.824;4.682;2023-07-08T07:37:38;1.77;;;1.65;;
41115;SDS011;26861;51.824;4.682;2023-07-08T07:40:08;2.88;;;1.50;;
41115;SDS011;26861;51.824;4.682;2023-07-08T07:42:42;2.45;;;1.45;;
41115;SDS011;26861;51.824;4.682;2023-07-08T07:45:09;1.48;;;1.38;;
41115;SDS011;26861;51.824;4.682;2023-07-08T07:47:35;1.60;;;1.50;;
41115;SDS011;26861;51.824;4.682;2023-07-08T07:50:03;2.08;;;1.20;;
41115;SDS011;26861;51.824;4.682;2023-07-08T07:52:30;1.85;;;1.65;;
41115;SDS011;26861;51.824;4.682;2023-07-08T07:54:56;3.33;;;1.40;;
41115;SDS011;26861;51.824;4.682;2023-07-08T07:57:23;2.88;;;1.60;;
41115;SDS011;26861;51.824;4.682;2023-07-08T07:59:50;1.33;;;1.23;;
41115;SDS011;26861;51.824;4.682;2023-07-08T08:02:16;1.67;;;1.40;;
41115;SDS011;26861;51.824;4.682;2023-07-08T08:04:42;1.48;;;1.00;;
41115;SDS011;26861;51.824;4.682;2023-07-08T08:07:09;1.52;;;1.40;;
41115;SDS011;26861;51.824;4.682;2023-07-08T08:09:35;1.58;;;1.23;;
41115;SDS011;26861;51.824;4.682;2023-07-08T08:12:02;1.27;;;1.17;;
41115;SDS011;26861;51.824;4.682;2023-07-08T08:14:30;3.10;;;1.20;;
41115;SDS011;26861;51.824;4.682;2023-07-08T08:16:56;3.15;;;1.52;;
41115;SDS011;26861;51.824;4.682;2023-07-08T08:19:22;1.88;;;1.10;;
41115;SDS011;26861;51.824;4.682;2023-07-08T08:21:48;1.75;;;1.40;;
41115;SDS011;26861;51.824;4.682;2023-07-08T08:24:14;3.63;;;1.25;;
41115;SDS011;26861;51.824;4.682;2023-07-08T08:26:41;2.78;;;1.05;;
41115;SDS011;26861;51.824;4.682;2023-07-08T08:29:07;2.03;;;0.90;;
41115;SDS011;26861;51.824;4.682;2023-07-08T08:31:33;2.53;;;1.00;;
41115;SDS011;26861;51.824;4.682;2023-07-08T08:33:59;1.52;;;1.38;;
41115;SDS011;26861;51.824;4.682;2023-07-08T08:36:25;2.22;;;1.20;;
41115;SDS011;26861;51.824;4.682;2023-07-08T08:38:51;4.20;;;1.10;;
41115;SDS011;26861;51.824;4.682;2023-07-08T08:41:25;2.65;;;1.40;;
41115;SDS011;26861;51.824;4.682;2023-07-08T08:43:57;5.07;;;1.27;;
41115;SDS011;26861;51.824;4.682;2023-07-08T08:51:52;1.35;;;1.20;;
41115;SDS011;26861;51.824;4.682;2023-07-08T08:54:19;1.83;;;1.40;;
41115;SDS011;26861;51.824;4.682;2023-07-08T08:56:48;3.08;;;1.35;;
41115;SDS011;26861;51.824;4.682;2023-07-08T09:01:50;2.40;;;1.25;;
41115;SDS011;26861;51.824;4.682;2023-07-08T09:04:20;2.03;;;1.10;;
41115;SDS011;26861;51.824;4.682;2023-07-08T09:06:57;2.78;;;1.50;;
41115;SDS011;26861;51.824;4.682;2023-07-08T09:09:41;3.65;;;1.38;;
41115;SDS011;26861;51.824;4.682;2023-07-08T09:12:18;1.67;;;1.23;;
41115;SDS011;26861;51.824;4.682;2023-07-08T09:14:49;2.13;;;1.60;;
41115;SDS011;26861;51.824;4.682;2023-07-08T09:17:22;2.20;;;1.58;;
41115;SDS011;26861;51.824;4.682;2023-07-08T09:22:53;4.35;;;1.92;;
41115;SDS011;26861;51.824;4.682;2023-07-08T09:25:25;3.60;;;2.00;;
41115;SDS011;26861;51.824;4.682;2023-07-08T09:28:39;2.97;;;2.03;;
41115;SDS011;26861;51.824;4.682;2023-07-08T09:31:21;3.00;;;2.17;;
41115;SDS011;26861;51.824;4.682;2023-07-08T09:33:47;4.50;;;1.95;;
41115;SDS011;26861;51.824;4.682;2023-07-08T09:36:17;3.97;;;2.83;;
41115;SDS011;26861;51.824;4.682;2023-07-08T09:38:47;4.82;;;2.13;;
41115;SDS011;26861;51.824;4.682;2023-07-08T09:41:17;4.18;;;2.40;;
41115;SDS011;26861;51.824;4.682;2023-07-08T09:46:37;2.50;;;2.00;;
41115;SDS011;26861;51.824;4.682;2023-07-08T09:49:23;2.70;;;2.08;;
41115;SDS011;26861;51.824;4.682;2023-07-08T09:51:54;2.85;;;2.45;;
41115;SDS011;26861;51.824;4.682;2023-07-08T09:54:21;3.88;;;2.08;;
41115;SDS011;26861;51.824;4.682;2023-07-08T09:56:52;2.95;;;2.50;;
41115;SDS011;26861;51.824;4.682;2023-07-08T09:59:30;2.88;;;2.40;;
41115;SDS011;26861;51.824;4.682;2023-07-08T10:02:01;3.38;;;2.42;;
41115;SDS011;26861;51.824;4.682;2023-07-08T10:04:29;5.45;;;2.60;;
41115;SDS011;26861;51.824;4.682;2023-07-08T10:06:55;3.45;;;2.65;;
41115;SDS011;26861;51.824;4.682;2023-07-08T10:09:23;4.88;;;2.90;;
41115;SDS011;26861;51.824;4.682;2023-07-08T10:11:55;3.65;;;2.47;;
41115;SDS011;26861;51.824;4.682;2023-07-08T10:14:30;3.38;;;2.42;;
41115;SDS011;26861;51.824;4.682;2023-07-08T10:17:00;5.10;;;2.80;;
41115;SDS011;26861;51.824;4.682;2023-07-08T10:19:27;3.22;;;2.75;;
41115;SDS011;26861;51.824;4.682;2023-07-08T10:22:03;2.60;;;2.20;;
41115;SDS011;26861;51.824;4.682;2023-07-08T10:27:07;3.95;;;2.55;;
41115;SDS011;26861;51.824;4.682;2023-07-08T10:35:17;3.03;;;2.47;;
41115;SDS011;26861;51.824;4.682;2023-07-08T10:43:09;3.23;;;2.97;;
41115;SDS011;26861;51.824;4.682;2023-07-08T10:46:03;3.67;;;2.92;;
41115;SDS011;26861;51.824;4.682;2023-07-08T10:49:00;6.45;;;3.00;;
41115;SDS011;26861;51.824;4.682;2023-07-08T10:59:47;4.18;;;3.20;;
41115;SDS011;26861;51.824;4.682;2023-07-08T11:05:31;4.35;;;2.97;;
41115;SDS011;26861;51.824;4.682;2023-07-08T11:10:53;3.75;;;3.08;;
41115;SDS011;26861;51.824;4.682;2023-07-08T11:13:31;3.95;;;3.30;;
41115;SDS011;26861;51.824;4.682;2023-07-08T11:16:04;3.60;;;2.88;;
41115;SDS011;26861;51.824;4.682;2023-07-08T11:18:53;3.50;;;3.00;;
41115;SDS011;26861;51.824;4.682;2023-07-08T11:21:37;4.55;;;3.08;;
41115;SDS011;26861;51.824;4.682;2023-07-08T11:26:36;3.53;;;3.22;;
41115;SDS011;26861;51.824;4.682;2023-07-08T11:29:25;4.43;;;3.13;;
41115;SDS011;26861;51.824;4.682;2023-07-08T11:34:31;6.85;;;3.67;;
41115;SDS011;26861;51.824;4.682;2023-07-08T11:36:58;3.72;;;3.17;;
41115;SDS011;26861;51.824;4.682;2023-07-08T11:39:26;3.83;;;3.53;;
41115;SDS011;26861;51.824;4.682;2023-07-08T11:42:17;5.45;;;3.38;;
41115;SDS011;26861;51.824;4.682;2023-07-08T11:44:50;3.88;;;2.83;;
41115;SDS011;26861;51.824;4.682;2023-07-08T11:47:41;3.33;;;3.03;;
41115;SDS011;26861;51.824;4.682;2023-07-08T11:50:18;3.17;;;2.88;;
41115;SDS011;26861;51.824;4.682;2023-07-08T11:53:03;4.13;;;3.07;;
41115;SDS011;26861;51.824;4.682;2023-07-08T11:55:37;3.08;;;2.70;;
41115;SDS011;26861;51.824;4.682;2023-07-08T11:58:21;4.22;;;3.22;;
41115;SDS011;26861;51.824;4.682;2023-07-08T12:03:39;3.45;;;2.90;;
41115;SDS011;26861;51.824;4.682;2023-07-08T12:08:54;2.78;;;2.58;;
41115;SDS011;26861;51.824;4.682;2023-07-08T12:11:55;3.70;;;3.30;;
41115;SDS011;26861;51.824;4.682;2023-07-08T12:14:13;3.83;;;3.28;;
41115;SDS011;26861;51.824;4.682;2023-07-08T12:16:40;3.50;;;2.83;;
41115;SDS011;26861;51.824;4.682;2023-07-08T12:19:09;6.57;;;2.83;;
41115;SDS011;26861;51.824;4.682;2023-07-08T12:21:39;3.13;;;2.83;;
41115;SDS011;26861;51.824;4.682;2023-07-08T12:24:07;3.20;;;2.83;;
41115;SDS011;26861;51.824;4.682;2023-07-08T12:26:36;4.07;;;3.35;;
41115;SDS011;26861;51.824;4.682;2023-07-08T12:29:02;3.58;;;3.17;;
41115;SDS011;26861;51.824;4.682;2023-07-08T12:31:28;3.38;;;3.05;;
41115;SDS011;26861;51.824;4.682;2023-07-08T12:33:54;3.90;;;3.50;;
41115;SDS011;26861;51.824;4.682;2023-07-08T12:36:21;4.35;;;2.63;;
41115;SDS011;26861;51.824;4.682;2023-07-08T12:38:50;5.25;;;3.35;;
41115;SDS011;26861;51.824;4.682;2023-07-08T12:43:52;3.28;;;2.97;;
41115;SDS011;26861;51.824;4.682;2023-07-08T12:46:19;3.35;;;3.05;;
41115;SDS011;26861;51.824;4.682;2023-07-08T12:48:46;3.15;;;2.85;;
41115;SDS011;26861;51.824;4.682;2023-07-08T12:51:14;3.78;;;2.90;;
41115;SDS011;26861;51.824;4.682;2023-07-08T12:53:43;5.45;;;3.25;;
41115;SDS011;26861;51.824;4.682;2023-07-08T12:56:10;2.95;;;2.75;;
41115;SDS011;26861;51.824;4.682;2023-07-08T12:58:40;3.45;;;2.90;;
41115;SDS011;26861;51.824;4.682;2023-07-08T13:01:08;3.40;;;3.00;;
41115;SDS011;26861;51.824;4.682;2023-07-08T13:03:42;3.05;;;2.75;;
41115;SDS011;26861;51.824;4.682;2023-07-08T13:06:10;5.13;;;3.00;;
41115;SDS011;26861;51.824;4.682;2023-07-08T13:08:37;3.30;;;3.00;;
41115;SDS011;26861;51.824;4.682;2023-07-08T13:11:05;4.28;;;3.25;;
41115;SDS011;26861;51.824;4.682;2023-07-08T13:13:36;3.05;;;2.75;;
41115;SDS011;26861;51.824;4.682;2023-07-08T13:16:05;2.95;;;2.70;;
41115;SDS011;26861;51.824;4.682;2023-07-08T13:18:34;2.75;;;2.50;;
41115;SDS011;26861;51.824;4.682;2023-07-08T13:21:03;3.53;;;3.17;;
41115;SDS011;26861;51.824;4.682;2023-07-08T13:23:31;2.90;;;2.65;;
41115;SDS011;26861;51.824;4.682;2023-07-08T13:25:59;4.20;;;2.72;;
41115;SDS011;26861;51.824;4.682;2023-07-08T13:28:26;3.00;;;2.50;;
41115;SDS011;26861;51.824;4.682;2023-07-08T13:30:56;3.10;;;2.78;;
41115;SDS011;26861;51.824;4.682;2023-07-08T13:33:28;5.05;;;3.10;;
41115;SDS011;26861;51.824;4.682;2023-07-08T13:35:56;3.35;;;3.03;;
41115;SDS011;26861;51.824;4.682;2023-07-08T13:38:24;3.72;;;3.08;;
41115;SDS011;26861;51.824;4.682;2023-07-08T13:40:59;3.45;;;3.15;;
41115;SDS011;26861;51.824;4.682;2023-07-08T13:43:30;3.78;;;3.08;;
41115;SDS011;26861;51.824;4.682;2023-07-08T13:45:58;3.97;;;2.72;;
41115;SDS011;26861;51.824;4.682;2023-07-08T13:56:21;4.55;;;3.45;;
41115;SDS011;26861;51.824;4.682;2023-07-08T13:58:53;4.82;;;3.15;;
41115;SDS011;26861;51.824;4.682;2023-07-08T14:01:31;4.97;;;3.30;;
41115;SDS011;26861;51.824;4.682;2023-07-08T14:03:58;4.05;;;3.65;;
41115;SDS011;26861;51.824;4.682;2023-07-08T14:06:29;4.20;;;3.10;;
41115;SDS011;26861;51.824;4.682;2023-07-08T14:09:06;4.35;;;3.30;;
41115;SDS011;26861;51.824;4.682;2023-07-08T14:11:41;4.68;;;3.45;;
41115;SDS011;26861;51.824;4.682;2023-07-08T14:14:08;4.88;;;3.42;;
41115;SDS011;26861;51.824;4.682;2023-07-08T14:16:36;3.13;;;2.88;;
41115;SDS011;26861;51.824;4.682;2023-07-08T14:21:32;3.90;;;3.50;;
41115;SDS011;26861;51.824;4.682;2023-07-08T14:24:00;4.80;;;3.80;;
41115;SDS011;26861;51.824;4.682;2023-07-08T14:26:28;4.45;;;3.20;;
41115;SDS011;26861;51.824;4.682;2023-07-08T14:28:54;4.10;;;3.70;;
41115;SDS011;26861;51.824;4.682;2023-07-08T14:31:21;5.75;;;3.53;;
41115;SDS011;26861;51.824;4.682;2023-07-08T14:33:50;5.03;;;3.65;;
41115;SDS011;26861;51.824;4.682;2023-07-08T14:36:25;5.30;;;4.20;;
41115;SDS011;26861;51.824;4.682;2023-07-08T14:38:51;4.25;;;3.67;;
41115;SDS011;26861;51.824;4.682;2023-07-08T14:41:17;6.55;;;3.90;;
41115;SDS011;26861;51.824;4.682;2023-07-08T14:43:43;4.35;;;3.88;;
41115;SDS011;26861;51.824;4.682;2023-07-08T14:46:09;4.20;;;3.80;;
41115;SDS011;26861;51.824;4.682;2023-07-08T14:48:36;6.65;;;3.53;;
41115;SDS011;26861;51.824;4.682;2023-07-08T14:51:02;5.65;;;3.60;;
41115;SDS011;26861;51.824;4.682;2023-07-08T14:53:28;4.05;;;3.65;;
41115;SDS011;26861;51.824;4.682;2023-07-08T14:55:55;5.93;;;3.22;;
41115;SDS011;26861;51.824;4.682;2023-07-08T14:58:26;4.00;;;3.17;;
41115;SDS011;26861;51.824;4.682;2023-07-08T15:00:56;5.22;;;3.80;;
41115;SDS011;26861;51.824;4.682;2023-07-08T15:03:24;4.63;;;3.67;;
41115;SDS011;26861;51.824;4.682;2023-07-08T15:05:50;5.18;;;3.95;;
41115;SDS011;26861;51.824;4.682;2023-07-08T15:08:17;4.68;;;3.85;;
41115;SDS011;26861;51.824;4.682;2023-07-08T15:10:52;4.75;;;4.00;;
41115;SDS011;26861;51.824;4.682;2023-07-08T15:13:19;4.68;;;3.75;;
41115;SDS011;26861;51.824;4.682;2023-07-08T15:15:49;4.10;;;3.70;;
41115;SDS011;26861;51.824;4.682;2023-07-08T15:18:16;5.97;;;4.07;;
41115;SDS011;26861;51.824;4.682;2023-07-08T15:20:43;4.05;;;3.58;;
41115;SDS011;26861;51.824;4.682;2023-07-08T15:23:09;4.13;;;3.30;;
41115;SDS011;26861;51.824;4.682;2023-07-08T15:25:37;6.00;;;4.05;;
41115;SDS011;26861;51.824;4.682;2023-07-08T15:28:07;4.35;;;3.80;;
41115;SDS011;26861;51.824;4.682;2023-07-08T15:30:40;4.68;;;4.18;;
41115;SDS011;26861;51.824;4.682;2023-07-08T15:33:08;6.05;;;3.75;;
41115;SDS011;26861;51.824;4.682;2023-07-08T15:35:34;4.63;;;3.63;;
41115;SDS011;26861;51.824;4.682;2023-07-08T15:38:00;4.00;;;3.60;;
41115;SDS011;26861;51.824;4.682;2023-07-08T15:40:30;4.53;;;3.67;;
41115;SDS011;26861;51.824;4.682;2023-07-08T15:42:58;4.65;;;3.60;;
41115;SDS011;26861;51.824;4.682;2023-07-08T15:45:27;3.80;;;3.40;;
41115;SDS011;26861;51.824;4.682;2023-07-08T15:47:58;4.18;;;3.75;;
41115;SDS011;26861;51.824;4.682;2023-07-08T15:50:24;4.57;;;3.90;;
41115;SDS011;26861;51.824;4.682;2023-07-08T15:52:52;4.78;;;3.60;;
41115;SDS011;26861;51.824;4.682;2023-07-08T15:55:26;4.80;;;3.47;;
41115;SDS011;26861;51.824;4.682;2023-07-08T15:57:57;4.10;;;3.67;;
41115;SDS011;26861;51.824;4.682;2023-07-08T16:00:34;6.05;;;4.00;;
41115;SDS011;26861;51.824;4.682;2023-07-08T16:03:05;3.67;;;3.20;;
41115;SDS011;26861;51.824;4.682;2023-07-08T16:05:35;5.13;;;3.45;;
41115;SDS011;26861;51.824;4.682;2023-07-08T16:08:02;3.83;;;3.30;;
41115;SDS011;26861;51.824;4.682;2023-07-08T16:10:28;3.88;;;3.47;;
41115;SDS011;26861;51.824;4.682;2023-07-08T16:12:56;4.20;;;3.55;;
41115;SDS011;26861;51.824;4.682;2023-07-08T16:15:29;5.88;;;3.80;;
41115;SDS011;26861;51.824;4.682;2023-07-08T16:17:58;4.30;;;3.83;;